Date,TemperatureHighF,TemperatureAvgF,TemperatureLowF,DewpointHighF,DewpointAvgF,DewpointLowF,HumidityHigh,HumidityAvg,HumidityLow,PressureMaxIn,PressureMinIn,WindSpeedMaxMPH,WindSpeedAvgMPH,GustSpeedMaxMPH,PrecipitationSumIn
2013-1-1,77,73,68,65,62,59,80,69,62,30.10,29.96,9,1,19,0.00
2013-1-2,79,71,62,69,65,60,95,83,69,30.00,29.90,8,1,15,0.00
2013-1-3,79,73,67,70,68,65,95,85,71,30.03,29.93,9,0,17,0.02
2013-1-4,79,72,67,72,69,65,96,89,75,30.13,30.01,7,0,12,0.00
2013-1-5,76,70,67,70,68,65,97,94,82,30.15,30.06,7,0,11,0.16
2013-1-6,80,74,67,72,70,66,97,88,78,30.09,29.97,9,1,16,0.01
2013-1-7,75,71,68,70,68,66,96,92,84,30.07,29.97,2,0,14,0.45
2013-1-8,81,76,72,74,72,70,94,87,80,30.10,29.97,6,1,18,0.28
2013-1-9,80,77,75,73,72,70,92,83,78,30.18,30.06,11,2,20,0.00
2013-1-10,79,76,75,70,68,65,82,75,65,30.20,30.09,13,3,20,0.00
2013-1-11,79,76,74,70,69,67,83,79,73,30.15,30.06,12,2,18,0.00
2013-1-12,79,75,73,70,68,66,87,79,72,30.08,30.00,11,2,15,0.01
2013-1-13,79,76,73,69,67,65,81,75,66,30.02,29.97,11,2,16,0.00
2013-1-14,78,75,72,68,66,63,81,73,66,30.07,30.01,9,1,15,0.00
2013-1-15,77,75,72,69,67,64,82,78,74,30.01,29.73,8,1,14,0.00
2013-1-16,79,74,66,71,68,63,92,80,71,29.78,29.68,8,1,18,0.08
2013-1-17,79,70,61,72,67,56,97,89,78,29.72,29.61,17,1,27,0.67
2013-1-18,71,63,52,62,54,47,84,74,64,29.84,29.72,11,2,21,0.00
2013-1-19,72,68,64,68,64,60,96,87,69,29.81,29.68,5,0,12,0.61
2013-1-20,77,70,64,70,67,63,98,90,75,29.69,29.55,5,0,12,0.02
2013-1-21,78,72,66,71,68,65,97,88,77,29.54,29.42,8,0,14,0.01
2013-1-22,75,68,62,64,60,54,95,76,59,29.59,29.41,14,3,21,0.00
2013-1-23,73,68,62,59,56,53,82,65,53,29.63,29.55,7,1,17,0.00
2013-1-24,74,66,60,58,54,48,85,68,51,29.55,29.45,7,1,14,0.00
2013-1-25,75,67,60,62,56,51,81,69,56,29.48,28.51,4,0,15,0.00
2013-1-26,76,68,60,62,59,53,92,74,58,28.48,28.21,8,1,13,0.00
2013-1-27,76,71,64,65,62,59,88,75,60,28.27,28.19,12,2,16,0.00
2013-1-28,78,75,72,67,65,63,79,72,65,28.23,28.15,11,2,18,0.00
2013-1-29,78,74,73,70,68,66,84,80,77,28.14,28.05,10,2,20,0.00
2013-1-30,78,74,72,69,67,64,89,78,71,28.04,27.89,17,3,23,0.00
2013-1-31,72,67,60,70,60,42,96,80,50,28.04,27.84,9,2,25,0.00
2013-2-1,72,62,54,57,50,41,75,64,54,28.08,27.98,11,3,25,0.00
2013-2-2,72,64,56,55,50,38,83,61,51,28.04,27.96,6,1,14,0.00
2013-2-3,73,64,57,55,53,46,89,71,39,27.98,27.90,10,1,18,0.00
2013-2-4,72,66,54,56,55,48,80,67,57,27.92,27.87,1,0,11,0.00
2013-2-5,76,67,57,64,60,53,90,77,60,27.90,27.83,8,1,15,0.00
2013-2-6,78,71,62,68,64,61,95,80,67,27.94,27.85,8,1,13,0.00
2013-2-7,78,74,70,68,66,63,82,75,67,27.92,27.82,11,2,16,0.00
2013-2-8,81,74,70,71,69,65,94,83,66,27.86,27.76,13,1,18,0.00
2013-2-9,77,71,65,68,65,61,95,82,71,27.99,27.82,8,2,18,0.00
2013-2-10,75,72,70,64,63,59,81,73,66,28.03,27.93,14,4,20,0.01
2013-2-11,77,73,71,66,65,62,80,74,70,28.02,27.94,15,2,17,0.00
2013-2-12,80,75,69,70,68,65,89,81,69,27.93,27.82,18,2,23,0.00
2013-2-13,81,75,69,73,71,67,95,87,78,27.83,27.74,11,2,23,0.00
2013-2-14,78,71,63,72,68,62,96,91,82,27.83,27.72,12,1,26,0.65
2013-2-15,72,67,63,68,65,62,97,94,83,27.82,27.76,5,0,13,0.74
2013-2-16,72,65,56,64,57,46,97,78,49,27.86,27.68,17,4,29,0.01
2013-2-17,58,52,45,46,30,21,73,47,26,28.05,27.83,17,5,26,0.00
2013-2-18,68,60,47,58,47,35,73,63,52,28.02,27.95,12,4,20,0.00
2013-2-19,76,72,68,67,62,55,89,72,62,27.95,27.88,12,2,20,0.00
2013-2-20,76,70,64,68,65,60,96,84,61,27.91,27.83,11,1,14,0.00
2013-2-21,79,74,71,69,67,65,87,79,70,27.89,27.80,9,1,16,0.00
2013-2-22,80,76,73,72,70,67,89,84,78,27.91,27.83,16,3,24,0.00
2013-2-23,80,76,73,73,71,69,91,84,78,27.88,27.75,15,4,21,0.00
2013-2-24,83,76,71,75,72,69,97,87,66,27.80,27.73,12,1,17,0.00
2013-2-25,81,76,70,74,71,67,95,87,78,27.73,27.64,13,2,25,0.00
2013-2-26,82,78,75,74,72,71,90,82,72,27.71,27.61,11,2,23,0.00
2013-2-27,77,70,65,73,66,63,96,88,69,27.77,27.67,7,0,12,0.26
2013-2-28,69,64,60,64,55,47,96,74,46,27.77,27.69,10,2,18,0.00
2013-3-1,64,62,59,58,52,48,83,71,60,27.74,27.66,9,1,15,0.00
2013-3-2,64,58,54,50,43,37,75,59,47,27.77,27.68,20,3,29,0.00
2013-3-3,61,54,50,47,43,40,87,67,51,27.86,27.66,13,3,22,0.02
2013-3-4,64,54,43,45,39,35,76,59,37,27.92,27.80,13,3,21,0.00
2013-3-5,72,63,51,58,54,45,88,73,59,27.90,27.82,9,2,17,0.00
2013-3-6,76,65,54,64,53,31,94,68,29,27.85,27.72,14,4,28,0.01
2013-3-7,69,59,48,56,46,36,86,63,44,27.93,27.78,18,1,18,0.00
2013-3-8,73,64,55,55,52,47,88,68,43,27.91,27.82,8,1,14,0.00
2013-3-9,73,66,57,59,54,50,86,68,56,27.92,27.80,7,1,15,0.00
2013-3-10,74,70,67,62,57,54,75,64,56,27.89,27.81,12,3,16,0.00
2013-3-11,76,72,69,64,62,59,76,70,61,27.87,27.75,10,2,20,0.00
2013-3-12,78,74,71,70,67,63,85,78,69,27.77,27.67,13,3,26,0.00
2013-3-13,74,66,57,66,57,48,91,74,47,27.87,27.73,12,3,20,0.00
2013-3-14,69,61,55,54,48,42,84,64,37,27.93,27.80,16,4,23,0.00
2013-3-15,71,63,54,55,51,45,79,66,51,27.94,27.87,9,1,17,0.00
2013-3-16,73,65,56,58,55,53,92,71,53,27.92,27.84,8,1,16,0.00
2013-3-17,75,69,61,62,59,55,86,72,61,27.87,27.79,11,1,15,0.00
2013-3-18,77,73,68,70,66,62,95,81,73,27.83,27.75,9,2,22,0.09
2013-3-19,78,72,68,70,68,66,96,87,69,27.78,27.60,14,1,23,0.00
2013-3-20,80,72,65,70,66,61,97,84,61,27.72,27.61,8,1,24,0.01
2013-3-21,73,66,61,62,56,49,91,70,46,27.73,27.58,11,1,18,0.00
2013-3-22,75,69,56,70,61,53,92,78,62,27.75,27.63,7,1,17,0.00
2013-3-23,82,77,72,75,72,70,96,87,75,27.74,27.60,11,2,23,0.07
2013-3-24,88,80,74,74,72,69,95,80,58,27.65,27.48,25,4,33,0.01
2013-3-25,77,73,66,73,61,44,94,68,37,27.73,27.51,8,2,20,0.02
2013-3-26,66,61,54,45,39,34,64,46,33,27.90,27.72,14,5,26,0.00
2013-3-27,66,57,46,49,43,36,72,61,46,27.93,27.82,11,3,18,0.00
2013-3-28,70,61,52,52,46,34,74,58,31,27.96,27.83,10,2,14,0.00
2013-3-29,73,66,57,55,51,44,70,59,47,27.96,27.87,7,1,16,0.00
2013-3-30,73,68,64,56,53,51,69,59,48,27.95,27.88,9,1,15,0.00
2013-3-31,78,73,68,67,63,56,81,71,64,27.91,27.79,8,2,19,0.00
2013-4-1,82,75,71,72,68,64,89,79,56,27.78,27.71,9,2,21,0.10
2013-4-2,79,73,66,68,66,64,96,81,65,27.82,27.70,11,2,12,0.01
2013-4-3,81,76,72,71,69,67,85,79,71,27.79,27.74,8,1,17,0.00
2013-4-4,81,75,69,73,70,66,95,86,77,27.78,27.66,13,3,22,1.18
2013-4-5,73,68,66,71,66,64,96,92,82,27.71,27.56,8,2,21,0.77
2013-4-6,76,69,59,67,62,57,93,79,63,27.81,27.63,13,3,18,0.00
2013-4-7,77,73,71,65,64,62,78,73,66,27.86,27.73,12,3,20,0.00
2013-4-8,79,74,64,65,63,60,88,70,57,27.87,27.76,7,1,12,0.00
2013-4-9,79,76,73,69,67,65,80,76,70,27.89,27.78,9,2,16,0.00
2013-4-10,82,77,74,73,71,67,86,81,75,27.84,27.77,11,2,17,0.00
2013-4-11,82,78,75,74,72,71,90,83,76,27.78,27.66,13,4,22,0.03
2013-4-12,84,79,77,77,75,74,93,87,78,27.71,27.64,13,4,21,0.22
2013-4-13,81,77,73,75,74,71,95,90,79,27.72,27.63,7,1,15,0.42
2013-4-14,83,79,74,76,74,73,96,87,77,27.71,27.66,8,2,21,0.01
2013-4-15,84,77,70,77,74,68,95,88,76,27.82,27.65,11,1,20,1.46
2013-4-16,83,77,72,76,73,70,98,87,76,27.85,27.74,9,1,15,0.01
2013-4-17,81,78,75,71,70,68,85,77,69,27.83,27.77,11,2,17,0.00
2013-4-18,83,79,76,74,72,69,85,78,71,27.79,27.70,11,2,15,0.00
2013-4-19,84,80,78,74,73,71,86,79,71,27.80,27.72,14,3,24,0.00
2013-4-20,84,78,73,76,74,70,97,88,75,27.80,27.69,14,1,26,1.82
2013-4-21,82,77,72,74,72,70,95,87,76,27.81,27.72,9,1,18,0.01
2013-4-22,82,74,70,72,70,68,96,88,69,27.77,27.68,10,0,18,2.01
2013-4-23,81,75,68,70,67,64,96,79,62,27.83,27.66,17,3,26,0.01
2013-4-24,80,77,73,67,65,62,74,67,61,27.87,27.75,6,1,15,0.00
2013-4-25,79,76,73,65,63,62,72,65,59,27.94,27.80,7,2,14,0.00
2013-4-26,80,76,71,68,65,62,76,70,64,27.95,27.83,8,2,15,0.00
2013-4-27,80,76,73,68,65,62,77,69,63,27.92,27.83,9,2,19,0.00
2013-4-28,80,77,74,67,65,63,77,68,59,27.84,27.73,9,2,16,0.00
2013-4-29,81,77,75,72,69,64,83,76,67,27.77,27.68,9,1,18,0.01
2013-4-30,78,76,70,72,71,68,94,85,77,27.72,27.64,7,1,17,0.25
2013-5-1,83,76,71,74,71,68,95,87,73,27.73,27.63,8,0,16,0.60
2013-5-2,77,73,67,73,70,66,97,92,83,27.66,27.52,16,2,25,5.43
2013-5-3,82,74,68,72,69,67,97,86,64,27.52,27.44,8,1,18,0.12
2013-5-4,85,76,68,70,68,66,96,79,56,27.54,27.42,17,3,19,0.01
2013-5-5,79,73,69,67,63,54,92,72,43,27.65,27.48,10,2,19,0.00
2013-5-6,80,72,61,64,61,57,91,71,52,27.71,27.61,9,1,14,0.00
2013-5-7,82,72,63,68,62,59,88,72,49,27.77,27.67,10,2,19,0.00
2013-5-8,82,73,64,67,63,58,90,72,49,27.84,27.73,5,0,13,0.00
2013-5-9,84,76,67,74,68,61,84,77,67,27.85,27.76,7,1,14,0.00
2013-5-10,85,80,72,75,73,70,94,81,64,27.83,27.76,9,2,15,0.08
2013-5-11,84,79,74,76,74,69,95,84,73,27.77,27.69,16,3,22,0.01
2013-5-12,85,78,71,75,72,69,95,84,68,27.75,27.64,10,2,27,1.27
2013-5-13,77,73,71,72,70,68,97,90,76,27.78,27.67,6,0,13,0.02
2013-5-14,80,76,74,68,62,58,76,62,54,27.86,27.73,9,2,20,0.00
2013-5-15,79,76,73,66,62,59,67,62,53,27.88,27.78,11,2,15,0.00
2013-5-16,81,76,72,66,63,58,71,63,55,27.80,27.72,8,2,15,0.00
2013-5-17,83,78,72,74,70,65,94,78,64,27.79,27.69,8,2,16,0.59
2013-5-18,84,79,74,75,73,71,94,83,73,27.79,27.72,10,2,19,0.11
2013-5-19,83,79,76,72,70,69,81,75,66,27.78,27.70,8,1,14,0.00
2013-5-20,81,77,71,74,72,69,95,87,80,27.76,27.50,8,2,18,1.64
2013-5-21,80,76,72,74,72,70,96,87,75,27.54,27.44,11,1,18,0.32
2013-5-22,83,76,72,75,72,69,94,89,76,27.44,27.37,7,0,20,0.94
2013-5-23,90,81,74,76,74,67,95,81,50,27.48,27.37,7,1,16,0.00
2013-5-24,87,81,76,77,75,74,95,82,67,27.51,27.40,7,1,16,0.00
2013-5-25,84,80,75,75,69,66,86,71,57,27.58,27.47,11,3,20,0.00
2013-5-26,82,79,75,69,67,62,79,67,61,27.58,27.51,15,2,18,0.00
2013-5-27,83,79,74,73,71,65,93,78,67,27.57,27.48,9,3,20,0.24
2013-5-28,82,78,74,75,73,70,92,85,78,27.52,27.44,15,3,23,0.17
2013-5-29,80,76,72,74,72,68,95,88,77,27.49,27.43,16,3,29,2.73
2013-5-30,82,78,74,75,73,71,92,85,79,27.48,27.40,13,4,24,0.19
2013-5-31,81,78,76,76,74,72,94,88,83,27.46,27.39,12,2,21,0.92
2013-6-1,82,77,74,76,74,72,96,92,82,27.41,27.33,6,0,13,1.30
2013-6-2,86,78,72,77,74,71,98,87,71,27.38,27.32,11,1,15,0.01
2013-6-3,85,78,74,77,74,72,95,88,70,27.39,27.29,7,1,17,0.53
2013-6-4,84,77,73,77,74,71,97,91,75,27.40,27.31,6,0,11,0.24
2013-6-5,83,81,79,78,76,74,89,86,82,27.37,27.24,11,1,14,0.01
2013-6-6,85,80,75,80,76,72,95,89,81,27.25,27.15,14,3,30,1.03
2013-6-7,88,77,74,78,74,72,96,90,70,27.31,27.16,8,0,22,0.81
2013-6-8,86,79,74,80,76,73,96,90,78,27.42,27.27,6,0,15,0.16
2013-6-9,85,82,78,77,76,75,92,82,74,27.43,27.34,13,2,20,0.00
2013-6-10,86,83,80,78,76,75,87,82,76,27.39,27.32,9,2,16,0.00
2013-6-11,86,82,78,78,77,74,94,86,72,27.37,27.29,9,1,16,0.16
2013-6-12,86,81,78,78,76,75,94,87,75,27.38,27.28,6,0,13,0.00
2013-6-13,87,80,76,77,75,72,96,85,62,27.32,27.20,5,1,12,0.07
2013-6-14,90,80,75,78,74,72,94,83,59,27.22,27.13,10,1,17,0.22
2013-6-15,87,81,76,77,75,74,95,83,68,27.25,27.11,7,1,12,0.00
2013-6-16,87,82,76,79,76,74,94,83,72,27.27,27.19,7,0,14,0.20
2013-6-17,87,84,80,78,76,74,85,79,73,27.26,27.18,8,1,15,0.00
2013-6-18,88,84,81,78,76,75,86,79,68,27.23,27.12,11,2,15,0.00
2013-6-19,88,83,79,77,76,76,91,80,70,27.13,27.06,11,1,15,0.00
2013-6-20,87,80,71,77,74,68,95,83,71,27.16,27.07,19,1,24,2.38
2013-6-21,87,83,81,76,75,72,85,77,68,27.18,27.07,10,1,13,0.00
2013-6-22,87,83,80,76,75,74,83,77,69,27.16,27.07,7,1,14,0.00
2013-6-23,87,83,79,77,75,72,84,77,68,27.14,27.06,9,2,19,0.03
2013-6-24,87,83,78,77,75,72,83,76,70,27.17,27.07,13,3,16,0.01
2013-6-25,87,83,80,78,76,74,85,80,72,27.12,27.04,9,2,18,0.00
2013-6-26,87,83,80,77,76,74,87,79,70,27.08,26.98,9,2,16,0.03
2013-6-27,87,82,77,78,76,72,92,82,71,27.04,26.92,2,0,12,0.06
2013-6-28,86,80,74,78,75,70,94,84,72,26.93,26.85,12,1,19,2.03
2013-6-29,88,82,76,77,76,74,95,82,70,26.83,26.77,15,1,22,0.04
2013-6-30,87,81,77,78,75,74,92,83,70,26.85,26.78,12,3,26,0.11
2013-7-1,87,82,75,78,76,72,92,83,76,26.89,26.81,16,3,25,0.20
2013-7-2,87,82,76,79,77,74,95,84,77,26.90,26.80,13,1,18,0.01
2013-7-3,86,82,77,78,76,73,89,83,75,26.92,26.84,11,2,25,0.18
2013-7-4,87,84,77,78,76,72,90,78,72,26.90,26.82,10,2,19,0.01
2013-7-5,85,81,77,78,76,74,93,84,78,26.85,26.77,7,1,20,0.72
2013-7-6,86,82,79,78,76,74,88,80,72,26.80,26.69,7,2,19,0.13
2013-7-7,86,83,80,77,76,74,84,79,73,26.74,26.63,14,4,18,0.00
2013-7-8,86,83,80,76,74,72,84,77,69,26.74,26.63,11,1,15,0.05
2013-7-9,85,81,76,75,74,71,90,79,68,26.67,26.57,6,0,16,0.16
2013-7-10,83,78,71,77,74,69,96,87,80,26.57,26.47,9,1,19,2.27
2013-7-11,87,82,78,78,76,74,89,81,70,26.45,26.36,9,1,15,0.00
2013-7-12,87,81,77,77,74,71,94,82,69,26.38,26.29,7,0,18,0.00
2013-7-13,84,76,72,76,73,70,97,91,74,26.36,26.21,5,0,16,2.00
2013-7-14,87,78,72,76,73,70,96,86,67,26.38,26.28,8,1,16,0.87
2013-7-15,86,80,73,77,74,71,96,84,70,26.36,26.27,11,2,16,0.11
2013-7-16,82,78,73,74,72,70,92,83,72,26.37,26.26,11,3,24,0.30
2013-7-17,80,77,73,76,73,71,95,88,80,26.34,26.25,8,1,18,1.59
2013-7-18,82,76,72,77,73,70,96,93,86,26.31,26.15,5,0,19,0.90
2013-7-19,86,80,73,79,76,72,97,89,76,26.21,26.14,6,1,17,0.01
2013-7-20,85,82,77,79,77,73,90,86,80,26.18,26.09,8,1,19,0.00
2013-7-21,87,81,76,79,76,73,94,86,77,26.17,26.05,9,1,15,0.00
2013-7-22,87,83,79,77,76,73,90,81,71,26.17,26.05,10,1,17,0.00
2013-7-23,88,83,77,78,76,74,93,82,69,26.14,26.05,13,1,20,0.00
2013-7-24,92,84,78,78,74,69,90,74,53,26.08,25.85,9,1,19,0.00
2013-7-25,92,84,76,77,75,72,92,75,59,25.84,25.69,9,2,16,0.00
2013-7-26,91,82,77,77,76,73,93,81,60,25.79,25.66,7,1,16,0.22
2013-7-27,86,79,76,78,76,73,94,89,75,25.72,25.59,7,0,22,0.13
2013-7-28,85,80,76,78,76,72,94,87,78,25.75,25.61,0,0,13,0.63
2013-7-29,87,82,76,79,77,74,94,84,74,25.77,25.58,7,1,18,0.19
2013-7-30,87,83,73,80,77,70,95,84,75,25.56,25.35,6,1,14,0.45
2013-7-31,88,84,81,78,76,74,86,78,70,25.38,25.23,9,1,16,0.00
2013-8-1,87,83,80,77,75,74,82,77,68,25.33,25.18,12,2,16,0.00
2013-8-2,87,80,74,78,74,70,94,83,70,25.27,25.13,11,0,24,0.51
2013-8-3,86,77,71,78,75,69,95,91,78,25.28,25.17,5,0,29,0.96
2013-8-4,90,81,75,79,76,73,95,85,68,25.24,25.16,8,0,20,0.02
2013-8-5,88,80,77,79,76,73,93,86,72,25.23,25.12,7,1,12,0.41
2013-8-6,88,82,76,79,76,73,95,83,72,25.21,25.05,6,0,11,0.00
2013-8-7,87,83,78,78,76,73,89,80,72,25.14,25.07,6,1,17,0.00
2013-8-8,88,85,82,78,76,73,82,76,66,25.19,25.07,11,1,19,0.00
2013-8-9,87,82,78,77,75,71,89,79,69,25.17,25.05,9,2,19,0.16
2013-8-10,89,84,81,78,77,75,84,78,70,25.19,25.05,10,2,17,0.00
2013-8-11,88,85,82,79,77,76,83,78,73,25.15,25.08,7,1,14,0.00
2013-8-12,88,84,81,78,76,74,85,78,69,25.16,25.05,7,1,16,0.11
2013-8-13,88,84,81,77,76,75,84,77,69,25.09,25.00,8,1,15,0.00
2013-8-14,89,84,81,78,76,75,84,76,69,25.13,24.98,10,1,16,0.00
2013-8-15,85,80,75,77,76,72,95,86,77,25.15,25.05,7,0,21,1.59
2013-8-16,88,84,79,80,78,76,92,83,75,25.14,25.06,10,1,14,0.00
2013-8-17,88,85,82,80,78,76,85,80,73,25.20,25.03,9,1,17,0.00
2013-8-18,88,84,81,79,77,75,85,80,74,25.17,25.06,8,1,21,0.08
2013-8-19,89,85,82,79,77,76,84,79,72,25.14,25.05,9,1,19,0.00
2013-8-20,88,84,81,78,77,74,84,78,68,25.10,24.94,13,1,16,0.00
2013-8-21,88,84,80,80,78,75,89,82,76,25.05,24.90,12,2,20,0.11
2013-8-22,88,84,78,80,77,74,92,81,74,25.03,24.95,11,1,16,0.13
2013-8-23,88,84,81,79,77,75,85,80,69,25.02,24.83,12,1,15,0.01
2013-8-24,88,84,77,78,76,72,91,78,70,25.07,24.92,8,1,15,0.09
2013-8-25,84,80,74,77,75,72,94,85,74,25.12,24.96,7,0,12,0.13
2013-8-26,87,81,75,77,74,71,91,82,72,25.09,24.95,7,1,17,0.07
2013-8-27,83,78,74,76,73,70,92,86,69,24.98,24.88,0,0,12,0.25
2013-8-28,86,81,76,76,75,72,92,81,68,24.99,24.88,6,1,13,0.01
2013-8-29,87,81,74,78,75,72,93,83,73,24.95,24.88,7,0,13,0.01
2013-8-30,88,83,76,78,75,72,93,78,60,24.96,24.81,7,1,16,0.00
2013-8-31,88,80,75,78,75,72,93,84,71,24.87,24.80,5,0,13,0.04
2013-9-1,87,80,75,79,75,73,96,86,75,24.87,24.78,4,0,14,0.01
2013-9-2,89,79,75,79,75,71,95,88,71,24.91,24.80,2,0,14,0.00
2013-9-3,88,81,73,79,75,71,95,85,71,24.93,24.80,3,0,12,0.01
2013-9-4,83,82,81,78,77,75,86,84,80,24.90,24.83,2,0,9,0.00
2013-9-10,86,84,82,77,76,75,82,77,72,23.39,23.33,6,3,16,0.00
2013-9-11,82,80,74,77,75,70,93,83,77,23.30,22.96,6,1,14,0.01
2013-9-12,84,80,77,77,76,73,90,85,80,22.98,22.50,6,0,8,0.02
2013-9-13,87,82,75,78,75,73,95,81,67,30.23,19.84,5,0,11,0.00
2013-9-14,88,83,77,77,75,74,92,78,65,32.38,24.15,8,0,11,0.00
2013-9-15,85,82,78,79,76,71,90,84,77,32.38,22.90,13,0,17,0.22
2013-9-16,85,81,78,78,76,73,90,84,75,23.45,22.41,8,1,20,0.53
2013-9-17,81,80,76,77,75,73,94,86,80,22.66,21.51,11,1,14,0.51
2013-9-18,85,80,76,78,75,72,93,84,76,22.54,22.04,5,0,9,0.12
2013-9-19,87,80,75,77,74,71,93,83,72,25.30,20.80,9,1,14,0.18
2013-9-20,86,82,78,73,71,69,85,72,60,25.30,20.19,10,1,16,0.00
2013-9-21,86,82,79,75,73,71,80,75,69,27.61,20.03,6,1,11,0.00
2013-9-22,89,82,76,78,76,74,94,82,65,27.61,20.06,11,1,16,0.20
2013-9-23,87,80,75,78,76,72,94,88,73,24.67,24.57,9,0,28,0.80
2013-9-24,90,81,75,80,76,72,96,86,66,24.68,24.61,7,1,18,0.03
2013-9-25,88,82,77,78,75,72,88,80,67,24.66,24.59,5,1,16,0.01
2013-9-26,87,80,76,79,76,74,94,89,76,24.64,24.57,8,1,18,1.41
2013-9-27,87,80,75,76,74,72,94,81,61,24.69,24.56,16,2,17,0.01
2013-9-28,86,79,73,76,73,71,94,81,68,24.72,24.61,8,1,19,0.59
2013-9-29,85,81,76,72,71,69,84,71,64,24.74,24.64,7,1,11,0.00
2013-9-30,86,81,75,73,72,70,85,72,64,24.79,24.65,6,1,10,0.00
2013-10-1,86,82,79,75,73,71,79,73,69,24.83,24.72,8,1,14,0.00
2013-10-2,85,82,80,75,73,72,81,75,68,24.83,24.73,11,2,15,0.00
2013-10-3,85,82,80,75,74,72,82,77,71,24.86,24.73,7,2,13,0.00
2013-10-4,85,82,79,74,72,70,80,73,66,24.85,24.76,7,1,12,0.00
2013-10-5,86,81,73,75,72,69,90,75,65,24.82,24.75,5,1,11,0.00
2013-10-6,86,82,77,75,73,71,88,76,66,24.78,24.69,5,0,10,0.11
2013-10-7,88,79,74,77,72,70,93,82,62,24.73,24.66,10,1,24,0.10
2013-10-8,88,80,75,78,74,71,95,84,65,24.73,24.64,5,0,11,0.09
2013-10-9,84,78,72,76,72,69,92,85,74,24.79,24.68,7,1,14,0.00
2013-10-10,85,80,73,75,72,69,92,78,65,24.82,24.73,11,1,19,0.01
2013-10-11,84,79,71,72,69,67,89,72,61,24.82,24.73,6,1,14,0.00
2013-10-12,85,78,69,71,68,65,91,73,59,24.84,24.74,6,1,12,0.00
2013-10-13,84,79,73,71,68,65,89,70,54,24.83,24.74,7,1,15,0.00
2013-10-14,84,78,71,72,69,67,87,73,62,24.80,24.72,7,1,14,0.00
2013-10-15,84,79,72,73,70,69,91,76,65,24.77,24.69,7,1,12,0.00
2013-10-16,84,78,73,72,70,68,90,75,65,24.76,24.69,7,0,10,0.02
2013-10-17,84,79,72,73,71,69,91,77,67,29.72,24.68,7,1,10,0.00
2013-10-18,86,80,73,74,72,70,90,76,68,29.72,29.62,7,1,12,0.00
2013-10-19,86,82,78,76,73,71,82,75,65,29.69,29.62,7,1,14,0.00
2013-10-20,86,81,78,77,75,74,89,82,74,29.72,29.59,7,0,10,0.00
2013-10-21,87,82,78,77,76,74,90,80,70,29.73,29.66,10,1,15,0.11
2013-10-22,88,82,77,78,76,73,89,81,67,29.69,29.61,9,2,17,0.00
2013-10-23,87,80,76,76,73,69,92,79,63,29.68,29.54,7,0,18,0.00
2013-10-24,80,77,73,69,66,62,79,70,60,29.75,29.62,8,1,16,0.00
2013-10-25,82,77,70,67,65,63,81,66,57,29.83,29.71,9,2,22,0.00
2013-10-26,82,78,71,67,64,62,73,63,57,29.83,29.73,5,1,15,0.00
2013-10-27,81,75,67,66,63,60,78,68,58,29.81,29.67,7,1,11,0.00
2013-10-28,83,78,75,68,65,63,70,64,53,29.85,29.72,9,1,14,0.00
2013-10-29,83,79,73,70,68,66,80,68,62,29.87,29.75,11,2,16,0.00
2013-10-30,82,79,77,70,68,66,73,68,60,29.85,29.76,9,2,15,0.00
2013-10-31,84,80,75,73,71,67,84,75,67,29.79,29.72,7,2,14,0.04
2013-11-1,85,81,79,75,73,71,81,77,72,29.77,29.63,7,1,14,0.00
2013-11-2,87,79,72,73,70,67,94,77,52,29.68,29.54,5,0,17,0.00
2013-11-3,81,75,68,66,64,62,84,69,58,29.74,29.59,11,3,22,0.00
2013-11-4,80,77,73,68,65,59,83,67,51,29.74,29.67,21,4,23,0.08
2013-11-5,81,79,77,72,69,66,82,73,66,29.74,29.68,12,4,21,0.01
2013-11-6,82,79,76,71,69,68,77,73,63,29.74,29.67,12,3,20,0.00
2013-11-7,84,76,70,73,70,67,91,80,67,29.70,29.62,6,1,13,0.00
2013-11-8,83,76,72,72,70,68,91,82,66,29.72,29.62,11,2,22,0.54
2013-11-9,79,76,73,73,71,70,93,86,80,29.76,29.67,14,3,20,1.07
2013-11-10,81,79,77,72,70,68,82,76,73,29.76,29.69,8,2,16,0.00
2013-11-11,81,78,77,71,69,67,79,73,69,29.77,29.70,9,2,15,0.00
2013-11-12,82,78,72,71,68,67,88,73,63,29.73,29.65,6,1,13,0.00
2013-11-13,76,72,70,67,64,58,85,75,65,29.82,29.64,23,5,28,0.04
2013-11-14,76,73,70,63,59,56,70,63,57,29.81,29.73,12,3,24,0.00
2013-11-15,80,77,74,69,67,63,76,71,66,29.77,29.70,13,4,19,0.00
2013-11-16,80,78,72,72,70,68,89,76,70,29.76,29.68,8,2,16,0.13
2013-11-17,83,79,78,73,71,69,83,76,69,29.75,29.67,7,1,14,0.00
2013-11-18,82,78,74,73,71,70,91,81,69,29.72,29.60,4,0,10,0.04
2013-11-19,82,75,72,74,71,69,92,87,72,29.63,29.54,3,0,16,0.01
2013-11-20,83,76,70,74,72,69,95,87,71,29.73,29.57,2,0,10,0.06
2013-11-21,79,76,72,74,72,70,96,88,80,29.78,29.69,9,2,18,2.86
2013-11-22,80,78,76,72,70,69,82,79,73,29.78,29.72,10,3,18,0.00
2013-11-23,80,78,74,72,71,69,86,79,73,29.73,29.63,9,2,13,0.01
2013-11-24,80,74,69,70,68,64,92,82,66,29.78,29.63,18,2,24,0.50
2013-11-25,74,73,72,69,65,61,85,76,68,29.78,29.69,13,5,21,0.03
2013-11-26,81,77,73,75,72,69,91,85,79,29.68,29.53,14,3,21,0.12
2013-11-27,78,72,59,74,65,53,95,82,59,29.71,29.46,10,2,24,0.65
2013-11-28,73,63,48,61,54,45,88,73,59,29.81,29.63,11,3,20,0.00
2013-11-29,76,71,62,64,60,57,85,69,60,29.81,29.72,10,2,21,0.00
2013-11-30,75,71,62,69,64,59,92,79,67,29.79,29.70,11,1,21,0.53
2013-12-1,78,70,64,69,66,61,95,86,73,29.69,29.59,6,0,12,1.37
2013-12-2,73,68,64,67,64,61,96,88,71,29.57,29.47,7,0,16,0.08
2013-12-3,78,70,61,66,63,59,94,81,61,29.63,29.48,1,0,8,0.00
2013-12-4,80,73,66,69,66,63,93,80,67,29.74,29.57,6,0,13,0.00
2013-12-5,81,77,73,72,69,66,81,77,73,29.78,29.65,8,1,17,0.00
2013-12-6,81,78,75,71,70,67,82,77,69,29.82,29.69,10,2,17,0.00
2013-12-7,82,77,70,72,70,66,90,79,69,29.83,29.75,7,1,13,0.01
2013-12-8,81,77,71,71,70,67,91,77,69,29.81,29.74,7,2,19,0.04
2013-12-9,82,78,76,71,69,67,80,74,63,29.80,29.73,10,1,14,0.00
2013-12-10,82,78,74,73,71,70,89,80,72,29.79,29.71,7,1,12,0.00
2013-12-11,81,76,71,74,71,69,94,85,74,29.81,29.72,5,0,9,0.01
2013-12-12,78,73,69,70,66,61,94,82,69,29.80,29.72,12,2,22,0.00
2013-12-13,77,73,71,69,64,59,86,73,66,29.77,29.69,9,3,20,0.09
2013-12-14,80,77,73,72,71,68,86,81,74,29.70,29.63,8,3,17,0.01
2013-12-15,83,77,71,74,72,68,92,84,72,29.70,29.58,7,1,20,0.06
2013-12-16,73,68,63,68,61,58,89,79,69,29.73,29.64,8,1,13,0.00
2013-12-17,77,68,60,65,60,57,91,76,62,29.76,29.62,8,1,15,0.00
2013-12-18,76,67,61,60,58,57,89,75,57,29.78,29.64,10,1,16,0.00
2013-12-19,77,70,59,64,60,56,90,72,60,29.78,29.66,7,2,13,0.00
2013-12-20,80,77,74,70,68,64,78,73,69,29.78,29.67,7,2,15,0.00
2013-12-21,81,78,76,73,71,69,85,80,75,29.75,29.67,9,2,18,0.00
2013-12-22,82,79,77,73,72,71,85,81,74,29.79,29.68,11,3,20,0.00
2013-12-23,82,78,72,74,72,69,90,82,75,29.78,29.72,12,2,19,0.00
2013-12-24,81,72,68,72,68,62,95,85,69,29.74,29.68,9,1,18,0.00
2013-12-25,76,73,71,67,66,64,87,78,73,29.74,29.67,10,3,23,3.13
2013-12-26,78,75,74,70,69,67,83,80,77,29.72,29.63,7,2,16,0.00
2013-12-27,80,76,75,71,69,68,82,79,75,29.73,29.63,9,3,16,0.00
2013-12-28,79,77,75,72,70,68,89,82,77,29.71,29.62,12,2,18,0.02
2013-12-29,80,78,75,74,73,72,93,85,80,29.61,29.53,11,2,20,0.00
2013-12-30,77,73,69,72,69,65,95,89,80,29.69,29.56,7,1,13,0.00
2013-12-31,78,73,68,68,65,63,89,77,68,29.76,29.63,10,2,19,0.01
2014-1-1,79,76,74,73,70,65,91,83,73,29.73,29.62,8,2,16,0.35
2014-1-2,84,78,74,72,69,67,88,76,57,29.61,29.48,10,2,17,0.00